createdAt,value
2023-04-27T00:01:52.986Z,68.20
2023-04-27T00:04:20.844Z,68.33
2023-04-27T00:06:48.809Z,68.02
2023-04-27T00:09:16.508Z,67.89
2023-04-27T00:11:44.332Z,68.11
2023-04-27T00:14:11.970Z,67.67
2023-04-27T00:16:39.655Z,67.78
2023-04-27T00:19:09.059Z,68.13
2023-04-27T00:21:36.697Z,68.23
2023-04-27T00:24:04.488Z,68.42
2023-04-27T00:26:32.549Z,68.38
2023-04-27T00:29:00.167Z,68.67
2023-04-27T00:31:27.846Z,68.77
2023-04-27T00:33:55.483Z,68.79
2023-04-27T00:36:23.071Z,68.78
2023-04-27T00:38:50.715Z,68.97
2023-04-27T00:41:18.301Z,69.11
2023-04-27T00:43:46.228Z,68.92
2023-04-27T00:46:14.218Z,68.68
2023-04-27T00:48:41.961Z,68.76
2023-04-27T00:51:09.589Z,68.78
2023-04-27T00:53:37.426Z,68.81
2023-04-27T00:56:05.906Z,68.50
2023-04-27T00:58:33.562Z,68.85
2023-04-27T01:01:01.303Z,68.83
2023-04-27T01:03:29.129Z,68.90
2023-04-27T01:05:59.322Z,68.98
2023-04-27T01:08:28.431Z,69.10
2023-04-27T01:10:56.391Z,69.00
2023-04-27T01:13:24.484Z,69.25
2023-04-27T01:15:52.148Z,68.99
2023-04-27T01:18:19.773Z,68.85
2023-04-27T01:20:47.444Z,68.99
2023-04-27T01:23:17.238Z,69.16
2023-04-27T01:25:45.284Z,69.27
2023-04-27T01:28:12.910Z,69.48
2023-04-27T01:30:40.582Z,69.26
2023-04-27T01:33:08.231Z,69.34
2023-04-27T01:35:36.194Z,69.57
2023-04-27T01:38:03.799Z,69.80
2023-04-27T01:40:31.407Z,69.88
2023-04-27T01:42:59.027Z,70.12
2023-04-27T01:45:26.770Z,70.18
2023-04-27T01:47:54.377Z,70.04
2023-04-27T01:50:22.122Z,69.91
2023-04-27T01:52:49.802Z,69.76
2023-04-27T01:55:17.478Z,69.82
2023-04-27T01:57:45.130Z,69.65
2023-04-27T02:00:13.419Z,69.74
2023-04-27T02:02:41.414Z,69.79
2023-04-27T02:05:09.892Z,69.86
2023-04-27T02:07:37.536Z,69.72
2023-04-27T02:10:05.848Z,70.12
2023-04-27T02:12:33.466Z,70.07
2023-04-27T02:15:01.101Z,70.35
2023-04-27T02:17:29.607Z,70.40
2023-04-27T02:19:57.721Z,70.32
2023-04-27T02:22:25.404Z,70.33
2023-04-27T02:24:53.155Z,70.17
2023-04-27T02:27:20.777Z,70.02
2023-04-27T02:29:48.955Z,69.76
2023-04-27T02:32:17.101Z,69.64
2023-04-27T02:34:44.886Z,69.78
2023-04-27T02:37:12.491Z,69.65
2023-04-27T02:39:40.086Z,69.53
2023-04-27T02:42:07.725Z,69.54
2023-04-27T02:44:35.480Z,69.71
2023-04-27T02:47:03.145Z,69.74
2023-04-27T02:49:30.810Z,70.07
2023-04-27T02:51:58.393Z,69.94
2023-04-27T02:54:26.126Z,69.96
2023-04-27T02:56:53.727Z,69.57
2023-04-27T02:59:21.408Z,69.37
2023-04-27T03:01:49.209Z,69.20
2023-04-27T03:04:17.968Z,69.27
2023-04-27T03:06:45.764Z,69.44
2023-04-27T03:09:14.011Z,69.28
2023-04-27T03:11:41.839Z,69.17
2023-04-27T03:14:09.596Z,69.03
2023-04-27T03:16:37.249Z,69.10
2023-04-27T03:19:04.947Z,69.18
2023-04-27T03:21:32.767Z,69.23
2023-04-27T03:24:00.467Z,69.23
2023-04-27T03:26:28.087Z,69.60
2023-04-27T03:28:56.056Z,69.66
2023-04-27T03:31:23.885Z,69.86
2023-04-27T03:33:51.993Z,69.93
2023-04-27T03:36:19.602Z,69.94
2023-04-27T03:38:47.498Z,70.22
2023-04-27T03:41:15.113Z,70.20
2023-04-27T03:43:42.742Z,70.42
2023-04-27T03:46:10.440Z,70.63
2023-04-27T03:48:38.131Z,70.62
2023-04-27T03:51:06.825Z,70.72
2023-04-27T03:53:34.922Z,70.63
2023-04-27T03:56:03.084Z,70.87
2023-04-27T03:58:30.898Z,70.98
2023-04-27T04:00:58.791Z,70.87
2023-04-27T04:03:26.487Z,70.97
2023-04-27T04:05:54.234Z,71.14
2023-04-27T04:08:21.883Z,71.19
2023-04-27T04:10:49.496Z,71.08
2023-04-27T04:13:17.138Z,71.04
2023-04-27T04:15:44.786Z,71.06
2023-04-27T04:18:12.572Z,71.06
2023-04-27T04:20:40.153Z,71.10
2023-04-27T04:23:07.768Z,71.44
2023-04-27T04:25:35.448Z,71.41
2023-04-27T04:28:03.093Z,71.37
2023-04-27T04:30:30.707Z,71.63
2023-04-27T04:32:58.773Z,71.77
2023-04-27T04:35:26.819Z,71.68
2023-04-27T04:37:54.430Z,71.75
2023-04-27T04:40:22.130Z,72.15
2023-04-27T04:42:49.750Z,72.27
2023-04-27T04:45:17.473Z,72.19
2023-04-27T04:47:45.187Z,72.12
2023-04-27T04:50:13.303Z,72.23
2023-04-27T04:52:41.020Z,72.22
2023-04-27T04:55:09.248Z,72.54
2023-04-27T04:57:37.397Z,72.61
2023-04-27T05:00:07.842Z,72.52
2023-04-27T05:02:35.541Z,72.81
2023-04-27T05:05:03.540Z,72.81
2023-04-27T05:07:31.245Z,72.77
2023-04-27T05:09:58.912Z,72.92
2023-04-27T05:12:26.579Z,72.46
2023-04-27T05:14:54.185Z,72.48
2023-04-27T05:17:21.824Z,72.15
2023-04-27T05:19:49.446Z,72.21
2023-04-27T05:22:17.058Z,71.86
2023-04-27T05:24:44.734Z,71.86
2023-04-27T05:27:13.759Z,71.63
2023-04-27T05:29:41.453Z,71.07
2023-04-27T05:32:09.737Z,70.36
2023-04-27T05:34:37.574Z,69.77
2023-04-27T05:37:05.435Z,68.97
2023-04-27T05:39:33.216Z,68.66
2023-04-27T05:42:02.676Z,68.19
2023-04-27T05:44:31.094Z,67.90
2023-04-27T05:46:58.773Z,67.85
2023-04-27T05:49:26.718Z,68.01
2023-04-27T05:51:54.401Z,68.23
2023-04-27T05:54:22.107Z,67.46
2023-04-27T05:56:51.277Z,67.12
2023-04-27T05:59:19.368Z,66.82
2023-04-27T06:01:47.106Z,66.58
2023-04-27T06:04:15.151Z,65.94
2023-04-27T06:06:44.818Z,65.56
2023-04-27T06:09:12.878Z,64.94
2023-04-27T06:11:40.879Z,64.70
2023-04-27T06:14:08.523Z,64.68
2023-04-27T06:16:36.528Z,63.92
2023-04-27T06:19:04.118Z,63.55
2023-04-27T06:21:35.111Z,63.84
2023-04-27T06:24:02.791Z,63.47
2023-04-27T06:26:30.418Z,63.05
2023-04-27T06:28:58.126Z,62.72
2023-04-27T06:31:26.848Z,62.09
2023-04-27T06:33:54.551Z,61.70
2023-04-27T06:36:22.292Z,61.64
2023-04-27T06:38:49.898Z,61.39
2023-04-27T06:41:17.508Z,60.82
2023-04-27T06:43:45.127Z,61.19
2023-04-27T06:46:12.761Z,60.69
2023-04-27T06:48:41.134Z,61.06
2023-04-27T06:51:08.749Z,60.00
2023-04-27T06:53:36.892Z,59.38
2023-04-27T06:56:04.917Z,58.86
2023-04-27T06:58:32.689Z,59.07
2023-04-27T07:01:00.315Z,59.33
2023-04-27T07:03:28.083Z,58.20
2023-04-27T07:05:57.341Z,58.35
2023-04-27T07:08:25.032Z,58.47
2023-04-27T07:10:52.646Z,58.09
2023-04-27T07:13:20.289Z,57.61
2023-04-27T07:15:47.994Z,57.10
2023-04-27T07:18:15.640Z,56.82
2023-04-27T07:20:43.286Z,55.83
2023-04-27T07:23:11.162Z,56.02
2023-04-27T07:25:40.330Z,56.10
2023-04-27T07:28:08.976Z,55.97
2023-04-27T07:30:37.018Z,54.74
2023-04-27T07:33:05.131Z,54.87
2023-04-27T07:35:32.995Z,54.08
2023-04-27T07:38:03.278Z,55.00
2023-04-27T07:40:32.895Z,54.31
2023-04-27T07:43:00.683Z,54.60
2023-04-27T07:45:32.448Z,52.23
2023-04-27T07:48:00.595Z,50.46
2023-04-27T07:50:30.124Z,51.27
2023-04-27T07:52:57.954Z,50.08
2023-04-27T07:55:25.836Z,50.07
2023-04-27T07:57:53.743Z,49.17
2023-04-27T08:00:22.212Z,48.35
2023-04-27T08:02:50.719Z,47.48
2023-04-27T08:05:19.038Z,47.73
2023-04-27T08:07:47.801Z,47.71
2023-04-27T08:10:15.911Z,47.22
2023-04-27T08:12:43.560Z,47.31
2023-04-27T08:15:11.573Z,47.25
2023-04-27T08:17:42.024Z,47.43
2023-04-27T08:20:11.621Z,46.36
2023-04-27T08:22:40.617Z,45.68
2023-04-27T08:25:09.041Z,47.26
2023-04-27T08:27:37.842Z,46.29
2023-04-27T08:30:06.280Z,46.06
2023-04-27T08:32:34.221Z,44.90
2023-04-27T08:35:01.979Z,45.14
2023-04-27T08:37:29.589Z,45.04
2023-04-27T08:39:57.187Z,44.93
2023-04-27T08:42:24.830Z,45.10
2023-04-27T08:44:52.444Z,45.77
2023-04-27T08:47:25.730Z,44.65
2023-04-27T08:49:56.054Z,45.07
2023-04-27T08:52:23.680Z,45.74
2023-04-27T08:54:51.440Z,45.66
2023-04-27T08:57:19.106Z,45.29
2023-04-27T08:59:46.730Z,44.17
2023-04-27T09:02:21.257Z,43.78
2023-04-27T09:04:49.063Z,43.07
2023-04-27T09:07:17.638Z,43.37
2023-04-27T09:09:45.365Z,43.10
2023-04-27T09:12:20.817Z,43.59
2023-04-27T09:15:06.262Z,43.29
2023-04-27T09:17:34.052Z,43.05
2023-04-27T09:20:10.260Z,42.24
2023-04-27T09:22:48.037Z,41.78
2023-04-27T09:25:29.378Z,42.58
2023-04-27T09:27:58.266Z,41.21
2023-04-27T09:30:29.469Z,40.82
2023-04-27T09:32:59.234Z,40.06
2023-04-27T09:35:29.218Z,40.31
2023-04-27T09:37:57.235Z,40.98
2023-04-27T09:40:30.790Z,40.68
2023-04-27T09:43:01.623Z,41.12
2023-04-27T09:45:29.406Z,41.11
2023-04-27T09:47:58.219Z,40.95
2023-04-27T09:50:25.927Z,40.38
2023-04-27T09:52:53.556Z,40.31
2023-04-27T09:55:25.942Z,40.07
2023-04-27T09:58:06.418Z,39.34
2023-04-27T10:01:04.824Z,38.78
2023-04-27T10:03:47.776Z,39.77
2023-04-27T10:06:36.282Z,40.20
2023-04-27T10:09:06.968Z,40.03
2023-04-27T10:11:42.111Z,40.23
2023-04-27T10:14:18.200Z,40.23
2023-04-27T10:16:56.777Z,40.65
2023-04-27T10:19:25.057Z,41.32
2023-04-27T10:21:53.959Z,39.76
2023-04-27T10:24:31.045Z,39.77
2023-04-27T10:27:05.856Z,40.21
2023-04-27T10:29:43.851Z,39.01
2023-04-27T10:32:19.162Z,38.55
2023-04-27T10:34:48.829Z,40.51
2023-04-27T10:37:16.835Z,40.80
2023-04-27T10:39:49.413Z,41.56
2023-04-27T10:42:30.522Z,41.22
2023-04-27T10:44:58.347Z,40.81
2023-04-27T10:47:36.601Z,40.69
2023-04-27T10:50:05.716Z,41.06
2023-04-27T10:52:33.428Z,41.22
2023-04-27T10:55:21.403Z,40.63
2023-04-27T10:57:53.331Z,40.88
2023-04-27T11:00:25.574Z,40.01
2023-04-27T11:02:54.167Z,40.50
2023-04-27T11:05:29.687Z,40.66
2023-04-27T11:08:07.759Z,40.25
2023-04-27T11:10:35.929Z,40.02
2023-04-27T11:13:31.038Z,39.88
2023-04-27T11:15:59.406Z,40.36
2023-04-27T11:18:31.689Z,40.66
2023-04-27T11:21:15.786Z,40.18
2023-04-27T11:23:43.697Z,39.21
2023-04-27T11:26:16.219Z,38.58
2023-04-27T11:28:44.358Z,39.95
2023-04-27T11:31:12.020Z,39.27
2023-04-27T11:33:40.332Z,38.66
2023-04-27T11:36:21.652Z,38.90
2023-04-27T11:38:49.430Z,39.23
2023-04-27T11:41:17.740Z,39.70
2023-04-27T11:43:49.773Z,40.46
2023-04-27T11:46:22.473Z,40.24
2023-04-27T11:48:50.732Z,38.49
2023-04-27T11:51:18.380Z,38.86
2023-04-27T11:53:47.812Z,39.53
2023-04-27T11:56:15.783Z,38.74
2023-04-27T11:58:46.266Z,37.71
2023-04-27T12:01:16.650Z,37.06
2023-04-27T12:03:47.653Z,37.21
2023-04-27T12:06:32.193Z,37.10
2023-04-27T12:09:01.278Z,35.57
2023-04-27T12:11:28.932Z,34.69
2023-04-27T12:13:56.965Z,36.09
2023-04-27T12:16:24.747Z,35.77
2023-04-27T12:18:52.441Z,35.59
2023-04-27T12:21:20.320Z,36.13
2023-04-27T12:23:47.922Z,35.66
2023-04-27T12:26:15.617Z,36.05
2023-04-27T12:28:43.727Z,35.06
2023-04-27T12:31:13.964Z,36.46
2023-04-27T12:33:41.753Z,37.08
2023-04-27T12:36:09.482Z,36.98
2023-04-27T12:38:37.566Z,36.62
2023-04-27T12:41:05.264Z,37.86
2023-04-27T12:43:33.014Z,39.01
2023-04-27T12:46:00.625Z,40.00
2023-04-27T12:48:28.608Z,40.88
2023-04-27T12:50:56.885Z,40.78
2023-04-27T12:53:24.515Z,40.08
2023-04-27T12:55:53.466Z,40.62
2023-04-27T12:58:21.678Z,41.76
2023-04-27T13:00:49.288Z,41.86
2023-04-27T13:03:17.067Z,41.07
2023-04-27T13:05:45.659Z,40.90
2023-04-27T13:08:13.352Z,40.61
2023-04-27T13:10:41.658Z,41.14
2023-04-27T13:13:09.282Z,41.32
2023-04-27T13:15:37.468Z,41.17
2023-04-27T13:18:06.602Z,40.99
2023-04-27T13:20:34.597Z,39.93
2023-04-27T13:23:04.803Z,39.58
2023-04-27T13:25:32.441Z,39.73
2023-04-27T13:28:00.126Z,40.52
2023-04-27T13:30:28.200Z,41.07
2023-04-27T13:33:04.396Z,40.72
2023-04-27T13:35:38.511Z,40.67
2023-04-27T13:38:06.292Z,40.57
2023-04-27T13:40:34.046Z,40.80
2023-04-27T13:43:01.630Z,41.14
2023-04-27T13:45:29.240Z,41.45
2023-04-27T13:47:56.846Z,41.24
2023-04-27T13:50:24.592Z,41.55
2023-04-27T13:52:52.202Z,41.83
2023-04-27T13:55:19.818Z,41.49
2023-04-27T13:57:47.422Z,41.81
2023-04-27T14:00:15.597Z,41.73
2023-04-27T14:02:43.269Z,42.47
2023-04-27T14:05:11.308Z,42.11
2023-04-27T14:07:38.874Z,42.23
2023-04-27T14:10:07.294Z,41.51
2023-04-27T14:12:35.937Z,42.09
2023-04-27T14:15:03.798Z,42.24
2023-04-27T14:17:31.459Z,42.65
2023-04-27T14:19:59.066Z,42.71
2023-04-27T14:22:26.800Z,42.94
2023-04-27T14:24:56.441Z,42.35
2023-04-27T14:27:24.155Z,42.08
2023-04-27T14:29:51.766Z,41.96
2023-04-27T14:32:19.476Z,42.60
2023-04-27T14:34:47.514Z,42.40
2023-04-27T14:37:15.183Z,41.72
2023-04-27T14:39:45.131Z,40.72
2023-04-27T14:42:13.257Z,40.55
2023-04-27T14:44:40.980Z,39.09
2023-04-27T14:47:08.734Z,38.18
2023-04-27T14:49:36.380Z,36.74
2023-04-27T14:52:06.558Z,36.59
2023-04-27T14:54:35.589Z,36.79
2023-04-27T14:57:03.582Z,36.08
2023-04-27T14:59:31.222Z,35.25
2023-04-27T15:01:58.976Z,34.60
2023-04-27T15:04:26.832Z,34.51
2023-04-27T15:06:54.550Z,33.86
2023-04-27T15:09:22.240Z,34.46
2023-04-27T15:11:49.986Z,35.11
2023-04-27T15:14:17.668Z,35.31
2023-04-27T15:16:45.358Z,35.05
2023-04-27T15:19:13.586Z,35.29
2023-04-27T15:21:41.469Z,34.80
2023-04-27T15:24:09.206Z,35.16
2023-04-27T15:26:36.863Z,34.19
2023-04-27T15:29:04.537Z,34.81
2023-04-27T15:31:32.239Z,35.03
2023-04-27T15:33:59.888Z,35.29
2023-04-27T15:36:28.360Z,35.04
2023-04-27T15:38:56.020Z,35.16
2023-04-27T15:41:23.685Z,35.48
2023-04-27T15:43:51.864Z,35.47
2023-04-27T15:46:19.620Z,34.77
2023-04-27T15:48:47.272Z,35.34
2023-04-27T15:51:15.109Z,35.68
2023-04-27T15:53:42.739Z,35.45
2023-04-27T15:56:10.341Z,36.65
2023-04-27T15:58:38.035Z,36.80
2023-04-27T16:01:05.757Z,36.35
2023-04-27T16:03:34.848Z,36.25
2023-04-27T16:06:02.704Z,36.46
2023-04-27T16:08:32.265Z,37.30
2023-04-27T16:11:00.786Z,37.60
2023-04-27T16:13:31.454Z,36.29
2023-04-27T16:15:59.530Z,36.49
2023-04-27T16:18:27.181Z,37.24
2023-04-27T16:20:55.123Z,36.56
2023-04-27T16:23:24.346Z,36.42
2023-04-27T16:25:52.457Z,36.37
2023-04-27T16:28:20.607Z,36.45
2023-04-27T16:30:48.229Z,36.97
2023-04-27T16:33:16.390Z,37.09
2023-04-27T16:35:44.049Z,36.76
2023-04-27T16:38:11.644Z,35.67
2023-04-27T16:40:39.271Z,35.83
2023-04-27T16:43:06.873Z,36.32
2023-04-27T16:45:34.568Z,36.34
2023-04-27T16:48:02.531Z,36.57
2023-04-27T16:50:31.742Z,37.11
2023-04-27T16:53:07.032Z,37.43
2023-04-27T16:55:35.060Z,37.71
2023-04-27T16:58:02.682Z,38.87
2023-04-27T17:00:30.483Z,39.21
2023-04-27T17:02:58.164Z,39.26
2023-04-27T17:05:26.004Z,39.26
2023-04-27T17:07:53.688Z,39.59
2023-04-27T17:10:21.468Z,39.48
2023-04-27T17:12:49.199Z,39.19
2023-04-27T17:15:18.325Z,38.84
2023-04-27T17:17:45.946Z,39.44
2023-04-27T17:20:13.599Z,39.27
2023-04-27T17:22:41.263Z,39.35
2023-04-27T17:25:09.271Z,39.61
2023-04-27T17:27:36.893Z,39.36
2023-04-27T17:30:05.187Z,39.53
2023-04-27T17:32:33.408Z,39.69
2023-04-27T17:35:01.137Z,39.69
2023-04-27T17:37:28.792Z,39.96
2023-04-27T17:39:56.439Z,40.06
2023-04-27T17:42:24.028Z,41.11
2023-04-27T17:44:51.734Z,41.75
2023-04-27T17:47:20.568Z,42.13
2023-04-27T17:49:48.239Z,42.79
2023-04-27T17:52:16.053Z,43.01
2023-04-27T17:54:43.648Z,43.08
2023-04-27T17:57:11.331Z,43.45
2023-04-27T17:59:38.939Z,43.90
2023-04-27T18:02:06.792Z,44.61
2023-04-27T18:04:34.685Z,44.73
2023-04-27T18:07:02.485Z,44.40
2023-04-27T18:09:32.752Z,44.88
2023-04-27T18:12:00.886Z,45.36
2023-04-27T18:14:28.526Z,46.28
2023-04-27T18:16:56.300Z,46.73
2023-04-27T18:19:24.022Z,47.19
2023-04-27T18:21:51.735Z,47.73
2023-04-27T18:24:19.380Z,47.90
2023-04-27T18:26:47.059Z,47.98
2023-04-27T18:29:14.875Z,48.52
2023-04-27T18:31:42.787Z,48.71
2023-04-27T18:34:10.743Z,49.36
2023-04-27T18:36:38.425Z,49.65
2023-04-27T18:39:06.373Z,50.15
2023-04-27T18:41:34.055Z,50.70
2023-04-27T18:44:05.918Z,51.06
2023-04-27T18:46:33.870Z,51.33
2023-04-27T18:49:01.856Z,51.66
2023-04-27T18:51:29.467Z,51.77
2023-04-27T18:53:57.123Z,52.12
2023-04-27T18:56:24.725Z,52.27
2023-04-27T18:58:53.316Z,52.38
2023-04-27T19:01:25.518Z,52.58
2023-04-27T19:03:53.705Z,52.81
2023-04-27T19:06:21.552Z,53.22
2023-04-27T19:08:49.312Z,53.75
2023-04-27T19:11:19.527Z,54.15
2023-04-27T19:13:47.110Z,54.46
2023-04-27T19:16:15.577Z,54.56
2023-04-27T19:18:43.521Z,54.82
2023-04-27T19:21:11.367Z,55.06
2023-04-27T19:23:39.166Z,55.32
2023-04-27T19:26:13.150Z,55.27
2023-04-27T19:28:41.791Z,55.27
2023-04-27T19:31:10.100Z,55.24
2023-04-27T19:33:38.088Z,55.35
2023-04-27T19:36:06.056Z,55.76
2023-04-27T19:38:34.303Z,56.11
2023-04-27T19:41:04.238Z,56.09
2023-04-27T19:43:32.024Z,56.73
2023-04-27T19:46:01.443Z,56.83
2023-04-27T19:48:29.098Z,56.80
2023-04-27T19:50:56.756Z,56.85
2023-04-27T19:53:24.443Z,57.48
2023-04-27T19:55:52.151Z,57.53
2023-04-27T19:58:19.759Z,57.59
2023-04-27T20:00:47.384Z,57.89
2023-04-27T20:03:16.354Z,58.08
2023-04-27T20:05:44.911Z,58.50
2023-04-27T20:08:12.790Z,58.33
2023-04-27T20:10:41.327Z,58.47
2023-04-27T20:13:09.907Z,58.81
2023-04-27T20:15:37.667Z,59.13
2023-04-27T20:18:05.698Z,59.21
2023-04-27T20:20:33.899Z,59.36
2023-04-27T20:23:01.516Z,59.75
2023-04-27T20:25:29.203Z,59.71
2023-04-27T20:27:56.801Z,59.88
2023-04-27T20:30:24.899Z,60.07
2023-04-27T20:32:52.702Z,59.94
2023-04-27T20:35:20.889Z,60.02
2023-04-27T20:37:48.985Z,59.70
2023-04-27T20:40:17.751Z,59.99
2023-04-27T20:42:45.823Z,60.14
2023-04-27T20:45:13.783Z,60.24
2023-04-27T20:47:42.125Z,60.57
2023-04-27T20:50:09.986Z,60.65
2023-04-27T20:52:37.693Z,60.63
2023-04-27T20:55:06.292Z,60.38
2023-04-27T20:57:33.927Z,60.54
2023-04-27T21:00:01.544Z,61.10
2023-04-27T21:02:29.317Z,60.97
2023-04-27T21:04:57.175Z,61.02
2023-04-27T21:07:24.933Z,61.10
2023-04-27T21:09:52.524Z,61.06
2023-04-27T21:12:20.202Z,61.09
2023-04-27T21:14:47.820Z,61.07
2023-04-27T21:17:15.650Z,60.79
2023-04-27T21:19:43.285Z,61.14
2023-04-27T21:22:11.081Z,61.09
2023-04-27T21:24:38.703Z,61.75
2023-04-27T21:27:06.499Z,62.32
2023-04-27T21:29:35.499Z,62.36
2023-04-27T21:32:03.216Z,62.77
2023-04-27T21:34:31.051Z,62.74
2023-04-27T21:36:58.633Z,63.11
2023-04-27T21:39:26.296Z,63.15
2023-04-27T21:41:53.927Z,63.65
2023-04-27T21:44:21.551Z,63.72
2023-04-27T21:46:49.275Z,63.63
2023-04-27T21:49:17.038Z,63.71
2023-04-27T21:51:44.602Z,63.85
2023-04-27T21:54:12.351Z,63.76
2023-04-27T21:56:40.217Z,64.06
2023-04-27T21:59:08.207Z,64.38
2023-04-27T22:01:35.877Z,64.49
2023-04-27T22:04:05.120Z,64.77
2023-04-27T22:06:33.609Z,64.77
2023-04-27T22:09:01.504Z,64.92
2023-04-27T22:11:29.157Z,64.57
2023-04-27T22:13:57.339Z,64.69
2023-04-27T22:16:25.184Z,64.66
2023-04-27T22:18:53.976Z,64.53
2023-04-27T22:21:21.708Z,64.43
2023-04-27T22:23:49.514Z,64.51
2023-04-27T22:26:17.193Z,64.51
2023-04-27T22:28:44.872Z,64.60
2023-04-27T22:31:12.488Z,64.50
2023-04-27T22:33:40.118Z,64.60
2023-04-27T22:36:08.197Z,64.77
2023-04-27T22:38:36.091Z,64.96
2023-04-27T22:41:03.891Z,65.06
2023-04-27T22:43:31.642Z,65.04
2023-04-27T22:45:59.248Z,65.03
2023-04-27T22:48:27.198Z,65.00
2023-04-27T22:50:54.795Z,65.54
2023-04-27T22:53:23.107Z,65.43
2023-04-27T22:55:51.034Z,65.55
2023-04-27T22:58:18.809Z,65.59
2023-04-27T23:00:46.450Z,65.48
2023-04-27T23:03:14.553Z,65.95
2023-04-27T23:05:43.262Z,66.04
2023-04-27T23:08:10.924Z,66.12
2023-04-27T23:10:38.985Z,65.85
2023-04-27T23:13:07.415Z,66.00
2023-04-27T23:15:35.137Z,65.41
2023-04-27T23:18:03.202Z,65.39
2023-04-27T23:20:31.180Z,65.47
2023-04-27T23:22:58.841Z,65.68
2023-04-27T23:25:26.534Z,65.51
2023-04-27T23:27:54.169Z,65.49
2023-04-27T23:30:22.481Z,65.97
2023-04-27T23:32:50.576Z,65.46
2023-04-27T23:35:18.412Z,65.53
2023-04-27T23:37:46.039Z,65.94
2023-04-27T23:40:14.395Z,65.84
2023-04-27T23:42:42.096Z,65.80
2023-04-27T23:45:10.370Z,65.67
2023-04-27T23:47:38.059Z,65.89
2023-04-27T23:50:06.299Z,65.91
2023-04-27T23:52:33.934Z,66.16
2023-04-27T23:55:01.806Z,66.34
2023-04-27T23:57:29.429Z,66.45
2023-04-27T23:59:57.032Z,66.45
